createdAt,value
2019-02-27T00:02:15.933Z,2.90
2019-02-27T00:04:57.186Z,2.80
2019-02-27T00:07:37.737Z,2.80
2019-02-27T00:10:18.514Z,2.70
2019-02-27T00:12:59.153Z,2.70
2019-02-27T00:15:40.383Z,2.70
2019-02-27T00:18:23.803Z,2.60
2019-02-27T00:21:03.780Z,2.60
2019-02-27T00:23:44.286Z,2.50
2019-02-27T00:26:25.411Z,2.50
2019-02-27T00:29:06.285Z,2.60
2019-02-27T00:31:46.975Z,2.60
2019-02-27T00:34:27.842Z,2.60
2019-02-27T00:37:08.721Z,2.50
2019-02-27T00:39:50.068Z,2.50
2019-02-27T00:42:33.793Z,2.40
2019-02-27T00:45:14.038Z,2.30
2019-02-27T00:47:55.118Z,2.30
2019-02-27T00:50:38.927Z,2.40
2019-02-27T00:53:19.176Z,2.40
2019-02-27T00:56:00.307Z,2.40
2019-02-27T00:58:41.720Z,2.50
2019-02-27T01:01:23.108Z,2.60
2019-02-27T01:04:04.408Z,2.60
2019-02-27T01:06:47.460Z,2.60
2019-02-27T01:09:28.487Z,2.50
2019-02-27T01:12:09.451Z,2.50
2019-02-27T01:14:50.240Z,2.40
2019-02-27T01:17:31.403Z,2.20
2019-02-27T01:20:12.531Z,2.10
2019-02-27T01:22:53.509Z,2.00
2019-02-27T01:25:34.778Z,2.00
2019-02-27T01:28:16.261Z,2.00
2019-02-27T01:30:57.239Z,2.00
2019-02-27T01:33:38.754Z,2.00
2019-02-27T01:36:21.776Z,2.00
2019-02-27T01:39:02.456Z,2.10
2019-02-27T01:41:43.925Z,2.10
2019-02-27T01:44:25.482Z,2.20
2019-02-27T01:47:06.608Z,2.20
2019-02-27T01:49:49.116Z,2.10
2019-02-27T01:52:33.920Z,2.00
2019-02-27T01:55:13.790Z,2.00
2019-02-27T01:57:55.146Z,2.00
2019-02-27T02:00:35.823Z,2.00
2019-02-27T02:03:16.862Z,2.00
2019-02-27T02:05:59.337Z,1.90
2019-02-27T02:08:40.755Z,1.90
2019-02-27T02:11:22.005Z,1.90
2019-02-27T02:14:02.998Z,1.80
2019-02-27T02:16:43.625Z,1.80
2019-02-27T02:19:24.239Z,1.80
2019-02-27T02:22:06.143Z,1.80
2019-02-27T02:24:47.747Z,1.80
2019-02-27T02:27:28.996Z,1.80
2019-02-27T02:30:09.597Z,1.70
2019-02-27T02:32:52.352Z,1.70
2019-02-27T02:35:32.973Z,1.70
2019-02-27T02:38:14.130Z,1.70
2019-02-27T02:40:55.587Z,1.70
2019-02-27T02:43:41.528Z,1.80
2019-02-27T02:46:19.932Z,1.70
2019-02-27T02:49:06.264Z,1.60
2019-02-27T02:51:43.185Z,1.60
2019-02-27T02:54:24.446Z,1.60
2019-02-27T02:57:05.303Z,1.50
2019-02-27T02:59:46.664Z,1.50
2019-02-27T03:02:29.661Z,1.50
2019-02-27T03:05:10.578Z,1.50
2019-02-27T03:07:51.486Z,1.60
2019-02-27T03:10:32.997Z,1.60
2019-02-27T03:13:16.957Z,1.60
2019-02-27T03:16:00.925Z,1.60
2019-02-27T03:18:40.174Z,1.60
2019-02-27T03:21:27.320Z,1.60
2019-02-27T03:24:04.125Z,1.60
2019-02-27T03:26:45.342Z,1.60
2019-02-27T03:29:27.941Z,1.60
2019-02-27T03:32:08.649Z,1.60
2019-02-27T03:34:51.133Z,1.50
2019-02-27T03:37:32.628Z,1.40
2019-02-27T03:40:13.722Z,1.30
2019-02-27T03:42:54.472Z,1.30
2019-02-27T03:45:35.294Z,1.30
2019-02-27T03:48:16.138Z,1.30
2019-02-27T03:50:56.976Z,1.30
2019-02-27T03:53:38.332Z,1.40
2019-02-27T03:56:19.092Z,1.40
2019-02-27T03:59:05.509Z,1.50
2019-02-27T04:01:43.666Z,1.50
2019-02-27T04:04:29.604Z,1.40
2019-02-27T04:07:06.615Z,1.40
2019-02-27T04:09:47.870Z,1.50
2019-02-27T04:12:29.079Z,1.40
2019-02-27T04:15:09.862Z,1.40
2019-02-27T04:17:52.208Z,1.40
2019-02-27T04:20:33.427Z,1.50
2019-02-27T04:23:14.404Z,1.50
2019-02-27T04:25:55.113Z,1.50
2019-02-27T04:28:36.278Z,1.40
2019-02-27T04:31:17.488Z,1.40
2019-02-27T04:34:00.241Z,1.40
2019-02-27T04:36:41.050Z,1.40
2019-02-27T04:39:21.922Z,1.40
2019-02-27T04:42:02.756Z,1.40
2019-02-27T04:44:43.757Z,1.40
2019-02-27T04:47:28.884Z,1.40
2019-02-27T04:50:10.856Z,1.40
2019-02-27T04:52:50.754Z,1.40
2019-02-27T04:55:31.371Z,1.40
2019-02-27T04:58:12.069Z,1.40
2019-02-27T05:00:41.300Z,1.40
2019-02-27T05:03:29.565Z,1.40
2019-02-27T05:06:12.070Z,1.40
2019-02-27T05:09:00.815Z,1.40
2019-02-27T05:11:47.537Z,1.30
2019-02-27T05:14:27.370Z,1.30
2019-02-27T05:17:08.782Z,1.30
2019-02-27T05:19:52.031Z,1.20
2019-02-27T05:22:32.732Z,1.20
2019-02-27T05:25:14.414Z,1.10
2019-02-27T05:27:56.470Z,1.10
2019-02-27T05:30:37.267Z,1.20
2019-02-27T05:33:17.996Z,1.20
2019-02-27T05:35:58.879Z,1.20
2019-02-27T05:38:40.975Z,1.20
2019-02-27T05:41:23.122Z,1.20
2019-02-27T05:44:03.671Z,1.10
2019-02-27T05:46:44.626Z,1.20
2019-02-27T05:49:27.387Z,1.20
2019-02-27T05:52:08.462Z,1.20
2019-02-27T05:54:49.869Z,1.20
2019-02-27T05:57:31.464Z,1.20
2019-02-27T06:03:01.938Z,1.10
2019-02-27T06:05:50.277Z,1.20
2019-02-27T06:08:35.094Z,1.20
2019-02-27T06:11:13.661Z,1.20
2019-02-27T06:13:54.846Z,1.20
2019-02-27T06:16:37.611Z,1.30
2019-02-27T06:19:18.718Z,1.30
2019-02-27T06:21:59.223Z,1.30
2019-02-27T06:24:39.984Z,1.40
2019-02-27T06:27:21.191Z,1.40
2019-02-27T06:30:02.254Z,1.30
2019-02-27T06:32:43.653Z,1.30
2019-02-27T06:35:24.301Z,1.40
2019-02-27T06:38:05.494Z,1.40
2019-02-27T06:40:46.426Z,1.40
2019-02-27T06:43:27.945Z,1.50
2019-02-27T06:46:09.142Z,1.50
2019-02-27T06:48:50.001Z,1.50
2019-02-27T06:51:33.397Z,1.50
2019-02-27T06:54:18.125Z,1.40
2019-02-27T06:56:56.763Z,1.40
2019-02-27T06:59:38.513Z,1.30
2019-02-27T07:02:21.686Z,1.30
2019-02-27T07:05:01.755Z,1.30
2019-02-27T07:07:44.799Z,1.30
2019-02-27T07:10:25.320Z,1.30
2019-02-27T07:13:06.050Z,1.40
2019-02-27T07:15:48.255Z,1.50
2019-02-27T07:18:29.702Z,1.50
2019-02-27T07:21:10.707Z,1.60
2019-02-27T07:23:51.673Z,1.60
2019-02-27T07:26:32.523Z,1.70
2019-02-27T07:29:21.354Z,1.80
2019-02-27T07:31:57.190Z,1.80
2019-02-27T07:34:38.042Z,1.90
2019-02-27T07:37:18.541Z,1.90
2019-02-27T07:39:59.403Z,1.90
2019-02-27T07:42:40.153Z,1.80
2019-02-27T07:45:22.654Z,1.80
2019-02-27T07:50:42.285Z,1.90
2019-02-27T07:53:25.548Z,2.10
2019-02-27T07:56:06.374Z,2.40
2019-02-27T07:58:47.103Z,2.70
2019-02-27T08:01:28.944Z,3.10
2019-02-27T08:04:09.385Z,3.40
2019-02-27T08:06:49.974Z,3.80
2019-02-27T08:09:30.812Z,4.10
2019-02-27T08:12:11.735Z,4.50
2019-02-27T08:14:52.559Z,4.80
2019-02-27T08:17:33.432Z,5.10
2019-02-27T08:20:13.916Z,5.40
2019-02-27T08:22:55.028Z,5.60
2019-02-27T08:25:35.561Z,5.80
2019-02-27T08:28:16.423Z,6.00
2019-02-27T08:30:57.050Z,6.20
2019-02-27T08:33:38.222Z,6.30
2019-02-27T08:36:19.299Z,6.50
2019-02-27T08:39:00.300Z,6.80
2019-02-27T08:41:41.738Z,6.90
2019-02-27T08:44:22.407Z,6.90
2019-02-27T08:47:04.274Z,7.10
2019-02-27T08:49:45.418Z,7.20
2019-02-27T08:52:26.213Z,7.40
2019-02-27T08:55:07.309Z,7.50
2019-02-27T08:57:49.864Z,7.60
2019-02-27T09:00:30.693Z,7.60
2019-02-27T09:03:20.034Z,7.80
2019-02-27T09:05:54.688Z,7.80
2019-02-27T09:08:36.201Z,7.90
2019-02-27T09:11:17.264Z,7.90
2019-02-27T09:13:58.053Z,8.00
2019-02-27T09:16:38.753Z,8.00
2019-02-27T09:19:20.764Z,7.80
2019-02-27T09:22:02.395Z,7.90
2019-02-27T09:24:43.516Z,7.90
2019-02-27T09:27:24.828Z,8.00
2019-02-27T09:30:05.809Z,8.10
2019-02-27T09:32:46.768Z,8.20
2019-02-27T09:35:34.488Z,8.20
2019-02-27T09:38:12.768Z,8.30
2019-02-27T09:40:53.481Z,8.40
2019-02-27T09:43:34.276Z,8.30
2019-02-27T09:46:19.305Z,8.40
2019-02-27T09:48:58.350Z,8.50
2019-02-27T09:51:39.208Z,8.50
2019-02-27T09:54:20.084Z,8.50
2019-02-27T09:57:04.908Z,8.60
2019-02-27T09:59:45.351Z,8.60
2019-02-27T10:02:25.920Z,8.70
2019-02-27T10:04:54.885Z,8.80
2019-02-27T10:07:43.066Z,8.90
2019-02-27T10:10:31.218Z,9.00
2019-02-27T10:13:12.173Z,9.00
2019-02-27T10:15:52.948Z,9.00
2019-02-27T10:18:33.620Z,9.10
2019-02-27T10:21:14.321Z,9.30
2019-02-27T10:23:55.087Z,9.30
2019-02-27T10:26:36.275Z,9.30
2019-02-27T10:29:18.938Z,9.30
2019-02-27T10:32:00.725Z,9.30
2019-02-27T10:34:41.917Z,9.40
2019-02-27T10:37:22.903Z,9.50
2019-02-27T10:40:03.849Z,9.50
2019-02-27T10:42:44.689Z,9.70
2019-02-27T10:45:25.576Z,9.60
2019-02-27T10:48:07.110Z,9.50
2019-02-27T10:50:48.418Z,9.50
2019-02-27T10:53:17.382Z,9.50
2019-02-27T10:56:05.634Z,9.50
2019-02-27T10:58:47.682Z,9.60
2019-02-27T11:01:29.611Z,9.50
2019-02-27T11:04:10.910Z,9.50
2019-02-27T11:06:51.980Z,9.40
2019-02-27T11:09:32.793Z,9.20
2019-02-27T11:12:13.614Z,9.20
2019-02-27T11:14:54.548Z,9.20
2019-02-27T11:17:35.503Z,9.00
2019-02-27T11:20:20.306Z,9.00
2019-02-27T11:22:59.136Z,9.10
2019-02-27T11:25:39.801Z,9.20
2019-02-27T11:28:20.579Z,9.30
2019-02-27T11:31:01.428Z,9.30
2019-02-27T11:33:42.194Z,9.40
2019-02-27T11:36:23.404Z,9.50
2019-02-27T11:39:04.832Z,9.50
2019-02-27T11:41:46.059Z,9.50
2019-02-27T11:44:27.877Z,9.50
2019-02-27T11:47:11.026Z,9.60
2019-02-27T11:49:51.661Z,9.70
2019-02-27T11:52:32.777Z,9.80
2019-02-27T11:55:14.812Z,9.90
2019-02-27T11:57:56.452Z,10.10
2019-02-27T12:00:38.149Z,10.20
2019-02-27T12:03:08.580Z,10.30
2019-02-27T12:05:57.111Z,10.40
2019-02-27T12:08:45.327Z,10.50
2019-02-27T12:11:33.480Z,10.50
2019-02-27T12:14:14.763Z,10.60
2019-02-27T12:16:55.255Z,10.70
2019-02-27T12:19:36.443Z,10.70
2019-02-27T12:22:17.306Z,10.80
2019-02-27T12:24:59.966Z,10.70
2019-02-27T12:27:48.980Z,10.70
2019-02-27T12:30:24.006Z,10.70
2019-02-27T12:33:04.909Z,10.80
2019-02-27T12:35:45.339Z,10.90
2019-02-27T12:38:26.190Z,11.00
2019-02-27T12:41:07.018Z,11.10
2019-02-27T12:43:52.322Z,11.10
2019-02-27T12:46:31.839Z,11.10
2019-02-27T12:49:13.358Z,11.20
2019-02-27T12:51:54.152Z,11.20
2019-02-27T12:54:35.019Z,11.40
2019-02-27T12:57:17.639Z,11.40
2019-02-27T12:59:58.612Z,11.50
2019-02-27T13:02:39.437Z,11.60
2019-02-27T13:05:20.709Z,11.80
2019-02-27T13:08:02.095Z,12.00
2019-02-27T13:10:42.949Z,12.20
2019-02-27T13:13:25.951Z,12.40
2019-02-27T13:16:06.704Z,12.70
2019-02-27T13:18:47.799Z,12.80
2019-02-27T13:21:28.927Z,13.00
2019-02-27T13:24:09.792Z,13.30
2019-02-27T13:29:33.892Z,13.40
2019-02-27T13:32:14.662Z,13.60
2019-02-27T13:34:55.690Z,13.80
2019-02-27T13:37:36.366Z,13.90
2019-02-27T13:40:17.189Z,14.10
2019-02-27T13:42:58.077Z,14.30
2019-02-27T13:45:39.024Z,14.60
2019-02-27T13:48:22.097Z,14.90
2019-02-27T13:51:02.770Z,15.10
2019-02-27T13:53:31.852Z,15.30
2019-02-27T13:56:20.016Z,15.50
2019-02-27T13:59:11.043Z,15.60
2019-02-27T14:01:51.105Z,15.60
2019-02-27T14:04:32.232Z,15.70
2019-02-27T14:07:13.031Z,16.00
2019-02-27T14:09:53.925Z,16.30
2019-02-27T14:12:36.403Z,16.30
2019-02-27T14:15:17.163Z,16.50
2019-02-27T14:17:57.970Z,16.40
2019-02-27T14:20:39.570Z,16.50
2019-02-27T14:23:20.271Z,16.80
2019-02-27T14:26:05.568Z,16.80
2019-02-27T14:28:43.761Z,17.00
2019-02-27T14:31:24.497Z,17.10
2019-02-27T14:34:05.394Z,17.30
2019-02-27T14:36:46.321Z,17.50
2019-02-27T14:39:15.495Z,17.40
2019-02-27T14:42:03.769Z,17.40
2019-02-27T14:44:44.690Z,17.50
2019-02-27T14:47:25.289Z,17.30
2019-02-27T14:50:06.401Z,17.50
2019-02-27T14:52:47.006Z,17.90
2019-02-27T14:55:27.715Z,17.70
2019-02-27T14:57:56.760Z,17.40
2019-02-27T15:00:45.640Z,17.50
2019-02-27T15:03:33.851Z,17.80
2019-02-27T15:06:15.914Z,18.10
2019-02-27T15:08:58.348Z,18.40
2019-02-27T15:11:40.716Z,18.50
2019-02-27T15:14:21.716Z,18.50
2019-02-27T15:17:02.410Z,18.50
2019-02-27T15:19:43.850Z,18.20
2019-02-27T15:22:26.090Z,17.70
2019-02-27T15:25:08.261Z,16.80
2019-02-27T15:27:49.556Z,16.00
2019-02-27T15:30:30.379Z,15.20
2019-02-27T15:33:11.170Z,14.60
2019-02-27T15:35:55.288Z,14.00
2019-02-27T15:38:34.629Z,13.50
2019-02-27T15:41:15.593Z,13.00
2019-02-27T15:44:00.211Z,12.60
2019-02-27T15:46:38.553Z,12.30
2019-02-27T15:49:19.601Z,12.00
2019-02-27T15:52:00.291Z,11.80
2019-02-27T15:54:41.352Z,11.60
2019-02-27T15:57:22.392Z,11.50
2019-02-27T16:00:03.174Z,11.30
2019-02-27T16:02:43.763Z,11.10
2019-02-27T16:05:30.198Z,11.00
2019-02-27T16:08:07.939Z,10.90
2019-02-27T16:10:54.871Z,10.80
2019-02-27T16:13:32.058Z,10.70
2019-02-27T16:16:14.676Z,10.60
2019-02-27T16:18:55.471Z,10.50
2019-02-27T16:21:36.685Z,10.40
2019-02-27T16:24:17.566Z,10.30
2019-02-27T16:27:01.315Z,10.20
2019-02-27T16:29:40.410Z,10.10
2019-02-27T16:32:21.425Z,10.00
2019-02-27T16:35:04.398Z,9.90
2019-02-27T16:37:45.257Z,9.80
2019-02-27T16:40:26.028Z,9.80
2019-02-27T16:43:06.925Z,9.80
2019-02-27T16:45:47.866Z,9.80
2019-02-27T16:48:31.018Z,9.70
2019-02-27T16:51:11.365Z,9.60
2019-02-27T16:53:52.678Z,9.50
2019-02-27T16:56:34.430Z,9.50
2019-02-27T16:59:15.130Z,9.50
2019-02-27T17:01:56.477Z,9.60
2019-02-27T17:04:37.039Z,9.60
2019-02-27T17:07:17.902Z,9.60
2019-02-27T17:09:58.806Z,9.60
2019-02-27T17:12:40.880Z,9.60
2019-02-27T17:15:22.657Z,9.50
2019-02-27T17:18:03.391Z,9.40
2019-02-27T17:20:46.415Z,9.20
2019-02-27T17:23:27.066Z,9.20
2019-02-27T17:26:07.735Z,9.20
2019-02-27T17:28:48.661Z,9.00
2019-02-27T17:31:31.028Z,8.90
2019-02-27T17:34:13.811Z,8.80
2019-02-27T17:36:54.368Z,8.80
2019-02-27T17:39:38.456Z,8.80
2019-02-27T17:42:19.790Z,8.80
2019-02-27T17:47:39.839Z,8.60
2019-02-27T17:50:20.433Z,8.50
2019-02-27T17:53:01.046Z,8.40
2019-02-27T17:55:42.558Z,8.30
2019-02-27T17:58:23.534Z,8.20
2019-02-27T18:01:06.020Z,8.20
2019-02-27T18:03:46.982Z,8.20
2019-02-27T18:06:27.866Z,8.10
2019-02-27T18:09:08.741Z,8.00
2019-02-27T18:11:52.646Z,7.90
2019-02-27T18:14:32.652Z,7.90
2019-02-27T18:17:13.552Z,7.80
2019-02-27T18:19:54.565Z,7.70
2019-02-27T18:22:35.906Z,7.60
2019-02-27T18:25:18.097Z,7.50
2019-02-27T18:27:59.806Z,7.50
2019-02-27T18:30:42.565Z,7.40
2019-02-27T18:33:23.436Z,7.40
2019-02-27T18:36:04.701Z,7.40
2019-02-27T18:38:46.934Z,7.30
2019-02-27T18:41:16.017Z,7.30
2019-02-27T18:44:04.696Z,7.30
2019-02-27T18:46:46.924Z,7.30
2019-02-27T18:49:18.702Z,7.40
2019-02-27T18:52:06.736Z,7.30
2019-02-27T18:54:48.150Z,7.30
2019-02-27T18:57:28.657Z,7.40
2019-02-27T19:00:10.786Z,7.40
2019-02-27T19:02:51.932Z,7.30
2019-02-27T19:05:33.073Z,7.30
2019-02-27T19:08:13.946Z,7.30
2019-02-27T19:10:54.859Z,7.20
2019-02-27T19:13:35.719Z,7.10
2019-02-27T19:16:17.523Z,7.00
2019-02-27T19:18:59.149Z,7.00
2019-02-27T19:21:40.020Z,7.00
2019-02-27T19:24:26.691Z,7.00
2019-02-27T19:27:03.708Z,6.90
2019-02-27T19:29:45.020Z,6.90
2019-02-27T19:32:26.408Z,6.90
2019-02-27T19:35:07.408Z,6.80
2019-02-27T19:37:48.340Z,6.80
2019-02-27T19:40:30.455Z,6.70
2019-02-27T19:43:11.745Z,6.70
2019-02-27T19:48:31.677Z,6.70
2019-02-27T19:51:12.520Z,6.70
2019-02-27T19:53:53.347Z,6.60
2019-02-27T19:56:35.599Z,6.50
2019-02-27T19:59:16.977Z,6.40
2019-02-27T20:01:57.410Z,6.30
2019-02-27T20:04:42.611Z,6.30
2019-02-27T20:07:20.502Z,6.20
2019-02-27T20:10:01.864Z,6.30
2019-02-27T20:12:42.642Z,6.30
2019-02-27T20:15:23.708Z,6.30
2019-02-27T20:18:07.812Z,6.30
2019-02-27T20:20:47.432Z,6.20
2019-02-27T20:23:28.149Z,6.20
2019-02-27T20:26:14.099Z,6.20
2019-02-27T20:28:51.628Z,6.20
2019-02-27T20:31:32.593Z,6.20
2019-02-27T20:34:13.421Z,6.10
2019-02-27T20:36:54.552Z,6.10
2019-02-27T20:39:36.081Z,6.00
2019-02-27T20:42:17.397Z,5.90
2019-02-27T20:44:58.809Z,5.80
2019-02-27T20:47:39.593Z,5.80
2019-02-27T20:50:21.938Z,5.80
2019-02-27T20:53:03.290Z,5.80
2019-02-27T20:55:44.578Z,5.80
2019-02-27T20:58:25.374Z,5.90
2019-02-27T21:01:09.994Z,5.90
2019-02-27T21:03:49.074Z,5.90
2019-02-27T21:06:30.066Z,5.80
2019-02-27T21:09:12.002Z,5.80
2019-02-27T21:11:53.092Z,5.70
2019-02-27T21:14:33.830Z,5.70
2019-02-27T21:17:16.521Z,5.80
2019-02-27T21:19:57.361Z,5.70
2019-02-27T21:22:38.215Z,5.60
2019-02-27T21:25:19.069Z,5.50
2019-02-27T21:28:00.153Z,5.60
2019-02-27T21:30:41.507Z,5.60
2019-02-27T21:33:23.049Z,5.50
2019-02-27T21:36:03.758Z,5.60
2019-02-27T21:38:47.491Z,5.60
2019-02-27T21:41:27.376Z,5.60
2019-02-27T21:44:08.072Z,5.60
2019-02-27T21:46:48.770Z,5.60
2019-02-27T21:49:32.278Z,5.50
2019-02-27T21:52:00.778Z,5.50
2019-02-27T21:54:48.949Z,5.50
2019-02-27T21:57:37.138Z,5.50
2019-02-27T22:00:25.395Z,5.50
2019-02-27T22:03:06.766Z,5.50
2019-02-27T22:05:52.540Z,5.50
2019-02-27T22:08:31.586Z,5.60
2019-02-27T22:11:12.088Z,5.60
2019-02-27T22:13:52.966Z,5.60
2019-02-27T22:16:34.082Z,5.60
2019-02-27T22:19:15.083Z,5.50
2019-02-27T22:21:55.822Z,5.40
2019-02-27T22:24:24.883Z,5.40
2019-02-27T22:27:13.483Z,5.40
2019-02-27T22:29:55.962Z,5.30
2019-02-27T22:32:36.612Z,5.40
2019-02-27T22:35:17.888Z,5.30
2019-02-27T22:37:58.384Z,5.20
2019-02-27T22:40:39.623Z,5.20
2019-02-27T22:43:22.079Z,5.20
2019-02-27T22:46:02.893Z,5.20
2019-02-27T22:48:44.089Z,5.20
2019-02-27T22:51:24.898Z,5.20
2019-02-27T22:54:05.737Z,5.20
2019-02-27T22:56:50.210Z,5.30
2019-02-27T22:59:28.869Z,5.50
2019-02-27T23:02:09.704Z,5.50
2019-02-27T23:04:50.544Z,5.50
2019-02-27T23:07:31.333Z,5.50
2019-02-27T23:10:11.997Z,5.40
2019-02-27T23:12:53.109Z,5.30
2019-02-27T23:15:34.084Z,5.30
2019-02-27T23:18:15.032Z,5.20
2019-02-27T23:20:56.169Z,5.20
2019-02-27T23:23:37.542Z,5.10
2019-02-27T23:26:20.148Z,5.00
2019-02-27T23:29:01.355Z,4.90
2019-02-27T23:31:42.303Z,4.90
2019-02-27T23:34:23.082Z,4.90
2019-02-27T23:37:03.804Z,4.80
2019-02-27T23:39:46.869Z,4.80
2019-02-27T23:42:27.935Z,4.80
2019-02-27T23:45:10.101Z,5.00
2019-02-27T23:47:51.685Z,5.00
2019-02-27T23:50:32.410Z,4.90
2019-02-27T23:53:15.132Z,4.80
2019-02-27T23:55:56.297Z,4.80
2019-02-27T23:58:37.459Z,4.60
